sensor_id;sensor_type;location;lat;lon;timestamp;P1;durP1;ratioP1;P2;durP2;ratioP2
26303;SDS011;57113;48.680;8.890;2023-05-07T00:01:48;3.85;;;2.00;;
26303;SDS011;57113;48.680;8.890;2023-05-07T00:04:13;3.17;;;2.00;;
26303;SDS011;57113;48.680;8.890;2023-05-07T00:06:39;5.85;;;2.17;;
26303;SDS011;57113;48.680;8.890;2023-05-07T00:09:05;5.07;;;1.80;;
26303;SDS011;57113;48.680;8.890;2023-05-07T00:11:31;2.83;;;1.65;;
26303;SDS011;57113;48.680;8.890;2023-05-07T00:13:57;2.80;;;1.73;;
26303;SDS011;57113;48.680;8.890;2023-05-07T00:16:23;4.15;;;1.67;;
26303;SDS011;57113;48.680;8.890;2023-05-07T00:18:48;2.80;;;1.48;;
26303;SDS011;57113;48.680;8.890;2023-05-07T00:21:14;5.78;;;2.50;;
26303;SDS011;57113;48.680;8.890;2023-05-07T00:23:39;3.25;;;1.67;;
26303;SDS011;57113;48.680;8.890;2023-05-07T00:26:05;2.45;;;1.73;;
26303;SDS011;57113;48.680;8.890;2023-05-07T00:28:31;5.75;;;1.67;;
26303;SDS011;57113;48.680;8.890;2023-05-07T00:30:56;2.13;;;1.35;;
26303;SDS011;57113;48.680;8.890;2023-05-07T00:33:22;2.90;;;1.60;;
26303;SDS011;57113;48.680;8.890;2023-05-07T00:35:48;4.85;;;1.60;;
26303;SDS011;57113;48.680;8.890;2023-05-07T00:38:13;2.38;;;1.40;;
26303;SDS011;57113;48.680;8.890;2023-05-07T00:40:39;3.28;;;1.55;;
26303;SDS011;57113;48.680;8.890;2023-05-07T00:43:05;2.47;;;1.65;;
26303;SDS011;57113;48.680;8.890;2023-05-07T00:45:32;3.25;;;1.58;;
26303;SDS011;57113;48.680;8.890;2023-05-07T00:47:59;2.53;;;1.55;;
26303;SDS011;57113;48.680;8.890;2023-05-07T00:50:26;2.47;;;1.55;;
26303;SDS011;57113;48.680;8.890;2023-05-07T00:52:52;3.58;;;1.42;;
26303;SDS011;57113;48.680;8.890;2023-05-07T00:55:18;2.50;;;1.63;;
26303;SDS011;57113;48.680;8.890;2023-05-07T00:57:44;3.85;;;1.15;;
26303;SDS011;57113;48.680;8.890;2023-05-07T01:00:10;7.60;;;1.85;;
26303;SDS011;57113;48.680;8.890;2023-05-07T01:02:40;3.03;;;1.70;;
26303;SDS011;57113;48.680;8.890;2023-05-07T01:05:07;2.28;;;1.42;;
26303;SDS011;57113;48.680;8.890;2023-05-07T01:07:34;3.97;;;1.75;;
26303;SDS011;57113;48.680;8.890;2023-05-07T01:10:02;3.03;;;1.55;;
26303;SDS011;57113;48.680;8.890;2023-05-07T01:12:29;4.10;;;1.88;;
26303;SDS011;57113;48.680;8.890;2023-05-07T01:14:55;4.10;;;1.30;;
26303;SDS011;57113;48.680;8.890;2023-05-07T01:17:21;4.53;;;1.70;;
26303;SDS011;57113;48.680;8.890;2023-05-07T01:19:47;4.38;;;1.70;;
26303;SDS011;57113;48.680;8.890;2023-05-07T01:22:14;3.42;;;1.35;;
26303;SDS011;57113;48.680;8.890;2023-05-07T01:24:41;2.40;;;1.50;;
26303;SDS011;57113;48.680;8.890;2023-05-07T01:27:08;2.38;;;1.52;;
26303;SDS011;57113;48.680;8.890;2023-05-07T01:29:33;5.78;;;1.70;;
26303;SDS011;57113;48.680;8.890;2023-05-07T01:32:00;2.30;;;1.40;;
26303;SDS011;57113;48.680;8.890;2023-05-07T01:34:27;2.85;;;1.58;;
26303;SDS011;57113;48.680;8.890;2023-05-07T01:36:54;4.65;;;1.60;;
26303;SDS011;57113;48.680;8.890;2023-05-07T01:39:24;4.93;;;1.60;;
26303;SDS011;57113;48.680;8.890;2023-05-07T01:41:50;4.50;;;1.75;;
26303;SDS011;57113;48.680;8.890;2023-05-07T01:44:16;2.47;;;1.60;;
26303;SDS011;57113;48.680;8.890;2023-05-07T01:46:43;3.13;;;1.60;;
26303;SDS011;57113;48.680;8.890;2023-05-07T01:49:09;3.20;;;1.60;;
26303;SDS011;57113;48.680;8.890;2023-05-07T01:51:35;4.25;;;1.75;;
26303;SDS011;57113;48.680;8.890;2023-05-07T01:54:01;3.10;;;1.50;;
26303;SDS011;57113;48.680;8.890;2023-05-07T01:56:26;2.97;;;1.63;;
26303;SDS011;57113;48.680;8.890;2023-05-07T01:58:52;3.05;;;1.65;;
26303;SDS011;57113;48.680;8.890;2023-05-07T02:01:18;2.22;;;1.50;;
26303;SDS011;57113;48.680;8.890;2023-05-07T02:03:43;5.75;;;1.85;;
26303;SDS011;57113;48.680;8.890;2023-05-07T02:06:09;3.50;;;1.45;;
26303;SDS011;57113;48.680;8.890;2023-05-07T02:08:35;4.18;;;1.60;;
26303;SDS011;57113;48.680;8.890;2023-05-07T02:11:01;4.88;;;1.50;;
26303;SDS011;57113;48.680;8.890;2023-05-07T02:13:28;5.35;;;1.48;;
26303;SDS011;57113;48.680;8.890;2023-05-07T02:15:55;2.25;;;1.23;;
26303;SDS011;57113;48.680;8.890;2023-05-07T02:18:21;2.33;;;1.52;;
26303;SDS011;57113;48.680;8.890;2023-05-07T02:20:46;3.97;;;1.65;;
26303;SDS011;57113;48.680;8.890;2023-05-07T02:23:12;4.45;;;2.00;;
26303;SDS011;57113;48.680;8.890;2023-05-07T02:25:37;2.30;;;1.63;;
26303;SDS011;57113;48.680;8.890;2023-05-07T02:28:03;5.10;;;1.85;;
26303;SDS011;57113;48.680;8.890;2023-05-07T02:30:29;3.50;;;1.55;;
26303;SDS011;57113;48.680;8.890;2023-05-07T02:32:54;3.17;;;1.90;;
26303;SDS011;57113;48.680;8.890;2023-05-07T02:35:20;5.07;;;1.60;;
26303;SDS011;57113;48.680;8.890;2023-05-07T02:37:46;4.28;;;1.48;;
26303;SDS011;57113;48.680;8.890;2023-05-07T02:40:11;4.43;;;1.60;;
26303;SDS011;57113;48.680;8.890;2023-05-07T02:42:37;2.70;;;1.50;;
26303;SDS011;57113;48.680;8.890;2023-05-07T02:45:03;2.83;;;1.63;;
26303;SDS011;57113;48.680;8.890;2023-05-07T02:47:29;6.25;;;1.90;;
26303;SDS011;57113;48.680;8.890;2023-05-07T02:49:54;2.38;;;1.50;;
26303;SDS011;57113;48.680;8.890;2023-05-07T02:52:20;3.00;;;1.60;;
26303;SDS011;57113;48.680;8.890;2023-05-07T02:54:47;2.72;;;1.80;;
26303;SDS011;57113;48.680;8.890;2023-05-07T02:57:12;3.72;;;1.60;;
26303;SDS011;57113;48.680;8.890;2023-05-07T02:59:38;4.95;;;1.70;;
26303;SDS011;57113;48.680;8.890;2023-05-07T03:02:03;5.10;;;1.50;;
26303;SDS011;57113;48.680;8.890;2023-05-07T03:04:29;2.30;;;1.55;;
26303;SDS011;57113;48.680;8.890;2023-05-07T03:06:54;3.25;;;1.50;;
26303;SDS011;57113;48.680;8.890;2023-05-07T03:09:20;3.33;;;1.63;;
26303;SDS011;57113;48.680;8.890;2023-05-07T03:11:46;4.05;;;1.95;;
26303;SDS011;57113;48.680;8.890;2023-05-07T03:14:11;4.03;;;1.50;;
26303;SDS011;57113;48.680;8.890;2023-05-07T03:16:37;7.63;;;1.70;;
26303;SDS011;57113;48.680;8.890;2023-05-07T03:19:03;5.93;;;1.70;;
26303;SDS011;57113;48.680;8.890;2023-05-07T03:21:29;2.38;;;1.33;;
26303;SDS011;57113;48.680;8.890;2023-05-07T03:23:55;4.93;;;1.90;;
26303;SDS011;57113;48.680;8.890;2023-05-07T03:26:21;1.80;;;1.45;;
26303;SDS011;57113;48.680;8.890;2023-05-07T03:28:47;3.88;;;1.63;;
26303;SDS011;57113;48.680;8.890;2023-05-07T03:31:12;3.50;;;1.80;;
26303;SDS011;57113;48.680;8.890;2023-05-07T03:33:42;3.53;;;1.60;;
26303;SDS011;57113;48.680;8.890;2023-05-07T03:36:22;4.72;;;1.80;;
26303;SDS011;57113;48.680;8.890;2023-05-07T03:38:48;3.65;;;1.63;;
26303;SDS011;57113;48.680;8.890;2023-05-07T03:41:14;3.78;;;1.38;;
26303;SDS011;57113;48.680;8.890;2023-05-07T03:43:40;2.50;;;1.60;;
26303;SDS011;57113;48.680;8.890;2023-05-07T03:46:05;2.50;;;1.70;;
26303;SDS011;57113;48.680;8.890;2023-05-07T03:48:31;5.85;;;1.50;;
26303;SDS011;57113;48.680;8.890;2023-05-07T03:50:57;2.45;;;1.85;;
26303;SDS011;57113;48.680;8.890;2023-05-07T03:53:23;2.88;;;1.60;;
26303;SDS011;57113;48.680;8.890;2023-05-07T03:55:49;5.10;;;1.50;;
26303;SDS011;57113;48.680;8.890;2023-05-07T03:58:14;3.65;;;1.65;;
26303;SDS011;57113;48.680;8.890;2023-05-07T04:00:40;4.32;;;1.63;;
26303;SDS011;57113;48.680;8.890;2023-05-07T04:03:06;2.75;;;1.52;;
26303;SDS011;57113;48.680;8.890;2023-05-07T04:05:32;2.63;;;1.40;;
26303;SDS011;57113;48.680;8.890;2023-05-07T04:07:58;3.03;;;1.40;;
26303;SDS011;57113;48.680;8.890;2023-05-07T04:10:24;6.43;;;1.65;;
26303;SDS011;57113;48.680;8.890;2023-05-07T04:12:50;5.72;;;1.73;;
26303;SDS011;57113;48.680;8.890;2023-05-07T04:15:15;5.93;;;1.40;;
26303;SDS011;57113;48.680;8.890;2023-05-07T04:17:41;4.22;;;1.40;;
26303;SDS011;57113;48.680;8.890;2023-05-07T04:20:10;3.30;;;1.40;;
26303;SDS011;57113;48.680;8.890;2023-05-07T04:22:39;2.78;;;1.27;;
26303;SDS011;57113;48.680;8.890;2023-05-07T04:25:05;4.57;;;1.90;;
26303;SDS011;57113;48.680;8.890;2023-05-07T04:27:31;2.70;;;1.35;;
26303;SDS011;57113;48.680;8.890;2023-05-07T04:29:57;4.50;;;1.58;;
26303;SDS011;57113;48.680;8.890;2023-05-07T04:32:23;2.65;;;1.50;;
26303;SDS011;57113;48.680;8.890;2023-05-07T04:34:49;3.78;;;1.23;;
26303;SDS011;57113;48.680;8.890;2023-05-07T04:37:15;5.55;;;1.73;;
26303;SDS011;57113;48.680;8.890;2023-05-07T04:39:41;2.88;;;1.80;;
26303;SDS011;57113;48.680;8.890;2023-05-07T04:42:06;4.65;;;1.60;;
26303;SDS011;57113;48.680;8.890;2023-05-07T04:44:34;3.00;;;1.50;;
26303;SDS011;57113;48.680;8.890;2023-05-07T04:47:00;2.20;;;1.48;;
26303;SDS011;57113;48.680;8.890;2023-05-07T04:49:26;5.20;;;1.60;;
26303;SDS011;57113;48.680;8.890;2023-05-07T04:51:52;2.65;;;1.58;;
26303;SDS011;57113;48.680;8.890;2023-05-07T04:54:17;1.73;;;1.20;;
26303;SDS011;57113;48.680;8.890;2023-05-07T04:56:43;3.33;;;1.33;;
26303;SDS011;57113;48.680;8.890;2023-05-07T04:59:08;2.40;;;1.20;;
26303;SDS011;57113;48.680;8.890;2023-05-07T05:01:34;2.03;;;1.42;;
26303;SDS011;57113;48.680;8.890;2023-05-07T05:04:00;2.22;;;1.48;;
26303;SDS011;57113;48.680;8.890;2023-05-07T05:06:25;2.28;;;1.40;;
26303;SDS011;57113;48.680;8.890;2023-05-07T05:08:51;7.00;;;1.60;;
26303;SDS011;57113;48.680;8.890;2023-05-07T05:11:17;3.10;;;1.60;;
26303;SDS011;57113;48.680;8.890;2023-05-07T05:13:42;1.83;;;1.45;;
26303;SDS011;57113;48.680;8.890;2023-05-07T05:16:08;3.25;;;1.25;;
26303;SDS011;57113;48.680;8.890;2023-05-07T05:18:34;3.13;;;1.50;;
26303;SDS011;57113;48.680;8.890;2023-05-07T05:20:59;2.47;;;1.40;;
26303;SDS011;57113;48.680;8.890;2023-05-07T05:23:25;4.03;;;1.58;;
26303;SDS011;57113;48.680;8.890;2023-05-07T05:25:55;3.13;;;1.30;;
26303;SDS011;57113;48.680;8.890;2023-05-07T05:28:22;3.70;;;1.50;;
26303;SDS011;57113;48.680;8.890;2023-05-07T05:30:48;4.88;;;1.40;;
26303;SDS011;57113;48.680;8.890;2023-05-07T05:33:14;2.88;;;1.50;;
26303;SDS011;57113;48.680;8.890;2023-05-07T05:35:40;3.13;;;1.77;;
26303;SDS011;57113;48.680;8.890;2023-05-07T05:38:06;3.50;;;1.40;;
26303;SDS011;57113;48.680;8.890;2023-05-07T05:40:32;3.05;;;1.45;;
26303;SDS011;57113;48.680;8.890;2023-05-07T05:42:58;5.20;;;1.60;;
26303;SDS011;57113;48.680;8.890;2023-05-07T05:45:24;2.45;;;1.30;;
26303;SDS011;57113;48.680;8.890;2023-05-07T05:47:49;3.75;;;1.40;;
26303;SDS011;57113;48.680;8.890;2023-05-07T05:50:15;1.83;;;1.40;;
26303;SDS011;57113;48.680;8.890;2023-05-07T05:52:41;2.50;;;1.30;;
26303;SDS011;57113;48.680;8.890;2023-05-07T05:55:07;4.85;;;1.55;;
26303;SDS011;57113;48.680;8.890;2023-05-07T05:57:33;3.53;;;1.70;;
26303;SDS011;57113;48.680;8.890;2023-05-07T05:59:59;2.78;;;1.40;;
26303;SDS011;57113;48.680;8.890;2023-05-07T06:02:25;2.47;;;1.70;;
26303;SDS011;57113;48.680;8.890;2023-05-07T06:04:51;2.65;;;1.73;;
26303;SDS011;57113;48.680;8.890;2023-05-07T06:07:16;2.70;;;1.52;;
26303;SDS011;57113;48.680;8.890;2023-05-07T06:09:42;2.75;;;1.50;;
26303;SDS011;57113;48.680;8.890;2023-05-07T06:12:08;1.95;;;1.20;;
26303;SDS011;57113;48.680;8.890;2023-05-07T06:14:33;4.97;;;1.77;;
26303;SDS011;57113;48.680;8.890;2023-05-07T06:16:59;4.20;;;1.48;;
26303;SDS011;57113;48.680;8.890;2023-05-07T06:19:24;2.75;;;1.40;;
26303;SDS011;57113;48.680;8.890;2023-05-07T06:21:51;1.90;;;1.60;;
26303;SDS011;57113;48.680;8.890;2023-05-07T06:24:17;3.13;;;1.40;;
26303;SDS011;57113;48.680;8.890;2023-05-07T06:26:42;4.50;;;2.53;;
26303;SDS011;57113;48.680;8.890;2023-05-07T06:29:08;6.60;;;2.47;;
26303;SDS011;57113;48.680;8.890;2023-05-07T06:31:33;4.38;;;2.33;;
26303;SDS011;57113;48.680;8.890;2023-05-07T06:33:59;8.40;;;2.80;;
26303;SDS011;57113;48.680;8.890;2023-05-07T06:36:27;3.53;;;2.15;;
26303;SDS011;57113;48.680;8.890;2023-05-07T06:38:53;3.22;;;1.80;;
26303;SDS011;57113;48.680;8.890;2023-05-07T06:41:18;2.97;;;2.25;;
26303;SDS011;57113;48.680;8.890;2023-05-07T06:43:45;3.85;;;2.88;;
26303;SDS011;57113;48.680;8.890;2023-05-07T06:46:11;4.72;;;2.50;;
26303;SDS011;57113;48.680;8.890;2023-05-07T06:48:36;2.85;;;2.08;;
26303;SDS011;57113;48.680;8.890;2023-05-07T06:51:02;4.18;;;2.17;;
26303;SDS011;57113;48.680;8.890;2023-05-07T06:53:28;2.42;;;1.90;;
26303;SDS011;57113;48.680;8.890;2023-05-07T06:55:55;3.38;;;2.15;;
26303;SDS011;57113;48.680;8.890;2023-05-07T06:58:21;3.10;;;1.95;;
26303;SDS011;57113;48.680;8.890;2023-05-07T07:00:47;2.45;;;1.70;;
26303;SDS011;57113;48.680;8.890;2023-05-07T07:03:12;2.58;;;1.80;;
26303;SDS011;57113;48.680;8.890;2023-05-07T07:05:38;2.63;;;1.90;;
26303;SDS011;57113;48.680;8.890;2023-05-07T07:08:05;2.47;;;1.85;;
26303;SDS011;57113;48.680;8.890;2023-05-07T07:10:30;2.63;;;1.83;;
26303;SDS011;57113;48.680;8.890;2023-05-07T07:12:56;3.13;;;1.80;;
26303;SDS011;57113;48.680;8.890;2023-05-07T07:15:22;3.53;;;2.08;;
26303;SDS011;57113;48.680;8.890;2023-05-07T07:17:49;2.88;;;1.70;;
26303;SDS011;57113;48.680;8.890;2023-05-07T07:20:15;2.28;;;1.77;;
26303;SDS011;57113;48.680;8.890;2023-05-07T07:22:41;2.95;;;1.90;;
26303;SDS011;57113;48.680;8.890;2023-05-07T07:25:07;2.60;;;1.90;;
26303;SDS011;57113;48.680;8.890;2023-05-07T07:27:33;2.72;;;1.95;;
26303;SDS011;57113;48.680;8.890;2023-05-07T07:29:58;2.88;;;1.85;;
26303;SDS011;57113;48.680;8.890;2023-05-07T07:32:24;3.05;;;2.05;;
26303;SDS011;57113;48.680;8.890;2023-05-07T07:34:50;2.08;;;1.70;;
26303;SDS011;57113;48.680;8.890;2023-05-07T07:37:16;2.42;;;1.70;;
26303;SDS011;57113;48.680;8.890;2023-05-07T07:39:41;2.95;;;1.60;;
26303;SDS011;57113;48.680;8.890;2023-05-07T07:42:07;1.70;;;1.50;;
26303;SDS011;57113;48.680;8.890;2023-05-07T07:44:33;2.53;;;1.88;;
26303;SDS011;57113;48.680;8.890;2023-05-07T07:46:58;2.70;;;1.90;;
26303;SDS011;57113;48.680;8.890;2023-05-07T07:49:24;2.70;;;1.70;;
26303;SDS011;57113;48.680;8.890;2023-05-07T07:51:49;2.55;;;1.95;;
26303;SDS011;57113;48.680;8.890;2023-05-07T07:54:16;2.00;;;1.50;;
26303;SDS011;57113;48.680;8.890;2023-05-07T07:56:41;2.45;;;1.70;;
26303;SDS011;57113;48.680;8.890;2023-05-07T07:59:07;3.78;;;1.63;;
26303;SDS011;57113;48.680;8.890;2023-05-07T08:01:32;2.60;;;1.55;;
26303;SDS011;57113;48.680;8.890;2023-05-07T08:03:58;3.20;;;1.67;;
26303;SDS011;57113;48.680;8.890;2023-05-07T08:06:24;1.95;;;1.63;;
26303;SDS011;57113;48.680;8.890;2023-05-07T08:08:52;2.40;;;1.70;;
26303;SDS011;57113;48.680;8.890;2023-05-07T08:11:18;2.42;;;1.63;;
26303;SDS011;57113;48.680;8.890;2023-05-07T08:13:45;1.73;;;1.55;;
26303;SDS011;57113;48.680;8.890;2023-05-07T08:16:11;2.10;;;1.70;;
26303;SDS011;57113;48.680;8.890;2023-05-07T08:18:36;2.38;;;1.42;;
26303;SDS011;57113;48.680;8.890;2023-05-07T08:21:02;1.65;;;1.30;;
26303;SDS011;57113;48.680;8.890;2023-05-07T08:23:28;1.80;;;1.50;;
26303;SDS011;57113;48.680;8.890;2023-05-07T08:25:53;2.85;;;1.60;;
26303;SDS011;57113;48.680;8.890;2023-05-07T08:28:19;2.42;;;1.40;;
26303;SDS011;57113;48.680;8.890;2023-05-07T08:30:46;3.63;;;1.80;;
26303;SDS011;57113;48.680;8.890;2023-05-07T08:33:12;1.88;;;1.40;;
26303;SDS011;57113;48.680;8.890;2023-05-07T08:35:37;2.40;;;1.67;;
26303;SDS011;57113;48.680;8.890;2023-05-07T08:38:03;2.80;;;1.90;;
26303;SDS011;57113;48.680;8.890;2023-05-07T08:40:29;2.05;;;1.80;;
26303;SDS011;57113;48.680;8.890;2023-05-07T08:43:01;3.45;;;1.73;;
26303;SDS011;57113;48.680;8.890;2023-05-07T08:45:28;2.72;;;1.70;;
26303;SDS011;57113;48.680;8.890;2023-05-07T08:47:58;1.88;;;1.58;;
26303;SDS011;57113;48.680;8.890;2023-05-07T08:50:27;2.72;;;1.90;;
26303;SDS011;57113;48.680;8.890;2023-05-07T08:52:53;2.53;;;1.50;;
26303;SDS011;57113;48.680;8.890;2023-05-07T08:55:18;3.83;;;1.70;;
26303;SDS011;57113;48.680;8.890;2023-05-07T08:57:45;2.33;;;1.63;;
26303;SDS011;57113;48.680;8.890;2023-05-07T09:00:12;2.75;;;1.63;;
26303;SDS011;57113;48.680;8.890;2023-05-07T09:02:38;3.83;;;1.42;;
26303;SDS011;57113;48.680;8.890;2023-05-07T09:05:04;3.55;;;1.60;;
26303;SDS011;57113;48.680;8.890;2023-05-07T09:07:30;2.00;;;1.65;;
26303;SDS011;57113;48.680;8.890;2023-05-07T09:09:56;2.25;;;1.40;;
26303;SDS011;57113;48.680;8.890;2023-05-07T09:12:23;5.22;;;1.70;;
26303;SDS011;57113;48.680;8.890;2023-05-07T09:14:48;3.33;;;1.45;;
26303;SDS011;57113;48.680;8.890;2023-05-07T09:17:15;2.13;;;1.35;;
26303;SDS011;57113;48.680;8.890;2023-05-07T09:19:41;2.63;;;1.70;;
26303;SDS011;57113;48.680;8.890;2023-05-07T09:22:12;2.58;;;1.50;;
26303;SDS011;57113;48.680;8.890;2023-05-07T09:24:38;1.90;;;1.40;;
26303;SDS011;57113;48.680;8.890;2023-05-07T09:27:04;5.22;;;1.83;;
26303;SDS011;57113;48.680;8.890;2023-05-07T09:29:30;2.45;;;1.13;;
26303;SDS011;57113;48.680;8.890;2023-05-07T09:32:02;2.67;;;1.50;;
26303;SDS011;57113;48.680;8.890;2023-05-07T09:34:30;4.30;;;1.30;;
26303;SDS011;57113;48.680;8.890;2023-05-07T09:36:56;1.60;;;1.33;;
26303;SDS011;57113;48.680;8.890;2023-05-07T09:39:26;2.17;;;1.40;;
26303;SDS011;57113;48.680;8.890;2023-05-07T09:42:04;1.98;;;1.50;;
26303;SDS011;57113;48.680;8.890;2023-05-07T09:44:31;1.77;;;1.33;;
26303;SDS011;57113;48.680;8.890;2023-05-07T09:46:57;2.88;;;1.58;;
26303;SDS011;57113;48.680;8.890;2023-05-07T09:49:25;1.98;;;1.33;;
26303;SDS011;57113;48.680;8.890;2023-05-07T09:51:55;1.92;;;1.23;;
26303;SDS011;57113;48.680;8.890;2023-05-07T09:54:21;1.95;;;1.60;;
26303;SDS011;57113;48.680;8.890;2023-05-07T09:56:50;2.72;;;1.42;;
26303;SDS011;57113;48.680;8.890;2023-05-07T09:59:17;2.60;;;1.45;;
26303;SDS011;57113;48.680;8.890;2023-05-07T10:01:45;2.53;;;1.55;;
26303;SDS011;57113;48.680;8.890;2023-05-07T10:04:11;2.38;;;1.40;;
26303;SDS011;57113;48.680;8.890;2023-05-07T10:06:37;3.25;;;1.40;;
26303;SDS011;57113;48.680;8.890;2023-05-07T10:09:04;1.88;;;1.30;;
26303;SDS011;57113;48.680;8.890;2023-05-07T10:11:31;2.45;;;1.55;;
26303;SDS011;57113;48.680;8.890;2023-05-07T10:14:01;2.05;;;1.50;;
26303;SDS011;57113;48.680;8.890;2023-05-07T10:16:31;4.38;;;1.50;;
26303;SDS011;57113;48.680;8.890;2023-05-07T10:19:01;2.58;;;1.38;;
26303;SDS011;57113;48.680;8.890;2023-05-07T10:21:31;3.17;;;1.52;;
26303;SDS011;57113;48.680;8.890;2023-05-07T10:24:05;1.73;;;1.48;;
26303;SDS011;57113;48.680;8.890;2023-05-07T10:26:39;2.28;;;1.50;;
26303;SDS011;57113;48.680;8.890;2023-05-07T10:29:11;2.85;;;1.58;;
26303;SDS011;57113;48.680;8.890;2023-05-07T10:34:16;1.40;;;1.20;;
26303;SDS011;57113;48.680;8.890;2023-05-07T10:36:45;2.63;;;1.55;;
26303;SDS011;57113;48.680;8.890;2023-05-07T10:39:12;1.90;;;1.45;;
26303;SDS011;57113;48.680;8.890;2023-05-07T10:41:38;1.98;;;1.35;;
26303;SDS011;57113;48.680;8.890;2023-05-07T10:44:04;2.10;;;1.30;;
26303;SDS011;57113;48.680;8.890;2023-05-07T10:46:30;2.40;;;1.50;;
26303;SDS011;57113;48.680;8.890;2023-05-07T10:51:25;2.47;;;1.60;;
26303;SDS011;57113;48.680;8.890;2023-05-07T10:54:34;1.83;;;1.45;;
26303;SDS011;57113;48.680;8.890;2023-05-07T10:56:44;3.33;;;1.45;;
26303;SDS011;57113;48.680;8.890;2023-05-07T11:01:56;2.45;;;1.55;;
26303;SDS011;57113;48.680;8.890;2023-05-07T11:04:28;3.10;;;1.65;;
26303;SDS011;57113;48.680;8.890;2023-05-07T11:09:53;2.83;;;1.55;;
26303;SDS011;57113;48.680;8.890;2023-05-07T11:15:02;2.63;;;1.75;;
26303;SDS011;57113;48.680;8.890;2023-05-07T11:17:29;2.63;;;1.40;;
26303;SDS011;57113;48.680;8.890;2023-05-07T11:19:59;5.63;;;1.70;;
26303;SDS011;57113;48.680;8.890;2023-05-07T11:25:03;2.78;;;1.80;;
26303;SDS011;57113;48.680;8.890;2023-05-07T11:27:30;2.35;;;1.67;;
26303;SDS011;57113;48.680;8.890;2023-05-07T11:29:57;3.78;;;1.38;;
26303;SDS011;57113;48.680;8.890;2023-05-07T11:32:23;2.42;;;1.60;;
26303;SDS011;57113;48.680;8.890;2023-05-07T11:34:56;2.63;;;1.30;;
26303;SDS011;57113;48.680;8.890;2023-05-07T11:37:23;4.82;;;1.48;;
26303;SDS011;57113;48.680;8.890;2023-05-07T11:39:52;3.30;;;1.45;;
26303;SDS011;57113;48.680;8.890;2023-05-07T11:42:35;2.72;;;1.58;;
26303;SDS011;57113;48.680;8.890;2023-05-07T11:45:06;3.08;;;1.70;;
26303;SDS011;57113;48.680;8.890;2023-05-07T11:47:32;4.72;;;1.60;;
26303;SDS011;57113;48.680;8.890;2023-05-07T11:50:06;2.30;;;1.40;;
26303;SDS011;57113;48.680;8.890;2023-05-07T11:52:32;2.10;;;1.35;;
26303;SDS011;57113;48.680;8.890;2023-05-07T11:54:59;3.40;;;1.60;;
26303;SDS011;57113;48.680;8.890;2023-05-07T11:57:26;2.63;;;1.52;;
26303;SDS011;57113;48.680;8.890;2023-05-07T11:59:57;4.20;;;1.75;;
26303;SDS011;57113;48.680;8.890;2023-05-07T12:02:24;4.82;;;1.80;;
26303;SDS011;57113;48.680;8.890;2023-05-07T12:04:51;2.00;;;1.60;;
26303;SDS011;57113;48.680;8.890;2023-05-07T12:07:17;3.40;;;1.65;;
26303;SDS011;57113;48.680;8.890;2023-05-07T12:09:43;2.92;;;1.80;;
26303;SDS011;57113;48.680;8.890;2023-05-07T12:12:10;2.65;;;1.63;;
26303;SDS011;57113;48.680;8.890;2023-05-07T12:14:39;2.33;;;1.73;;
26303;SDS011;57113;48.680;8.890;2023-05-07T12:17:07;3.00;;;1.67;;
26303;SDS011;57113;48.680;8.890;2023-05-07T12:19:36;3.53;;;1.77;;
26303;SDS011;57113;48.680;8.890;2023-05-07T12:22:04;8.80;;;2.30;;
26303;SDS011;57113;48.680;8.890;2023-05-07T12:24:46;3.80;;;2.00;;
26303;SDS011;57113;48.680;8.890;2023-05-07T12:27:12;5.13;;;2.05;;
26303;SDS011;57113;48.680;8.890;2023-05-07T12:29:46;6.60;;;2.20;;
26303;SDS011;57113;48.680;8.890;2023-05-07T12:32:15;4.80;;;2.20;;
26303;SDS011;57113;48.680;8.890;2023-05-07T12:34:42;5.53;;;2.03;;
26303;SDS011;57113;48.680;8.890;2023-05-07T12:37:08;4.18;;;1.90;;
26303;SDS011;57113;48.680;8.890;2023-05-07T12:39:35;4.63;;;2.40;;
26303;SDS011;57113;48.680;8.890;2023-05-07T12:42:00;5.07;;;1.95;;
26303;SDS011;57113;48.680;8.890;2023-05-07T12:44:30;3.33;;;1.80;;
26303;SDS011;57113;48.680;8.890;2023-05-07T12:46:58;3.47;;;2.35;;
26303;SDS011;57113;48.680;8.890;2023-05-07T12:49:26;4.00;;;2.20;;
26303;SDS011;57113;48.680;8.890;2023-05-07T12:51:53;3.88;;;2.00;;
26303;SDS011;57113;48.680;8.890;2023-05-07T12:57:15;7.47;;;2.10;;
26303;SDS011;57113;48.680;8.890;2023-05-07T12:59:45;3.97;;;1.92;;
26303;SDS011;57113;48.680;8.890;2023-05-07T13:02:10;4.60;;;2.13;;
26303;SDS011;57113;48.680;8.890;2023-05-07T13:04:36;3.30;;;2.20;;
26303;SDS011;57113;48.680;8.890;2023-05-07T13:07:02;4.30;;;2.13;;
26303;SDS011;57113;48.680;8.890;2023-05-07T13:09:28;4.90;;;2.30;;
26303;SDS011;57113;48.680;8.890;2023-05-07T13:11:54;3.85;;;2.38;;
26303;SDS011;57113;48.680;8.890;2023-05-07T13:14:20;3.35;;;1.90;;
26303;SDS011;57113;48.680;8.890;2023-05-07T13:16:46;6.30;;;2.13;;
26303;SDS011;57113;48.680;8.890;2023-05-07T13:19:12;4.10;;;2.13;;
26303;SDS011;57113;48.680;8.890;2023-05-07T13:21:38;2.90;;;1.80;;
26303;SDS011;57113;48.680;8.890;2023-05-07T13:24:03;4.63;;;1.90;;
26303;SDS011;57113;48.680;8.890;2023-05-07T13:26:30;5.82;;;2.08;;
26303;SDS011;57113;48.680;8.890;2023-05-07T13:28:56;3.60;;;2.08;;
26303;SDS011;57113;48.680;8.890;2023-05-07T13:31:22;4.18;;;2.30;;
26303;SDS011;57113;48.680;8.890;2023-05-07T13:33:48;2.53;;;2.05;;
26303;SDS011;57113;48.680;8.890;2023-05-07T13:36:14;3.33;;;2.05;;
26303;SDS011;57113;48.680;8.890;2023-05-07T13:38:40;2.90;;;2.15;;
26303;SDS011;57113;48.680;8.890;2023-05-07T13:41:05;4.00;;;2.15;;
26303;SDS011;57113;48.680;8.890;2023-05-07T13:43:31;7.25;;;2.30;;
26303;SDS011;57113;48.680;8.890;2023-05-07T13:46:00;3.50;;;1.88;;
26303;SDS011;57113;48.680;8.890;2023-05-07T13:48:26;4.90;;;1.90;;
26303;SDS011;57113;48.680;8.890;2023-05-07T13:50:53;5.97;;;2.10;;
26303;SDS011;57113;48.680;8.890;2023-05-07T13:53:19;2.78;;;1.92;;
26303;SDS011;57113;48.680;8.890;2023-05-07T13:55:44;3.97;;;2.10;;
26303;SDS011;57113;48.680;8.890;2023-05-07T13:58:10;6.05;;;2.20;;
26303;SDS011;57113;48.680;8.890;2023-05-07T14:00:36;4.63;;;2.10;;
26303;SDS011;57113;48.680;8.890;2023-05-07T14:03:03;6.13;;;2.03;;
26303;SDS011;57113;48.680;8.890;2023-05-07T14:05:30;4.47;;;2.22;;
26303;SDS011;57113;48.680;8.890;2023-05-07T14:07:59;4.03;;;2.20;;
26303;SDS011;57113;48.680;8.890;2023-05-07T14:10:24;8.27;;;2.03;;
26303;SDS011;57113;48.680;8.890;2023-05-07T14:12:52;3.65;;;2.00;;
26303;SDS011;57113;48.680;8.890;2023-05-07T14:15:20;5.22;;;1.95;;
26303;SDS011;57113;48.680;8.890;2023-05-07T14:17:45;4.65;;;1.90;;
26303;SDS011;57113;48.680;8.890;2023-05-07T14:20:12;2.80;;;1.73;;
26303;SDS011;57113;48.680;8.890;2023-05-07T14:22:37;2.83;;;1.75;;
26303;SDS011;57113;48.680;8.890;2023-05-07T14:25:03;6.22;;;2.10;;
26303;SDS011;57113;48.680;8.890;2023-05-07T14:27:29;2.72;;;1.95;;
26303;SDS011;57113;48.680;8.890;2023-05-07T14:29:55;6.90;;;2.03;;
26303;SDS011;57113;48.680;8.890;2023-05-07T14:32:21;4.35;;;2.28;;
26303;SDS011;57113;48.680;8.890;2023-05-07T14:34:46;4.68;;;2.00;;
26303;SDS011;57113;48.680;8.890;2023-05-07T14:37:12;4.25;;;2.10;;
26303;SDS011;57113;48.680;8.890;2023-05-07T14:39:38;5.25;;;2.20;;
26303;SDS011;57113;48.680;8.890;2023-05-07T14:42:04;6.13;;;2.03;;
26303;SDS011;57113;48.680;8.890;2023-05-07T14:44:32;4.97;;;2.25;;
26303;SDS011;57113;48.680;8.890;2023-05-07T14:46:59;5.05;;;2.40;;
26303;SDS011;57113;48.680;8.890;2023-05-07T14:49:25;4.03;;;2.17;;
26303;SDS011;57113;48.680;8.890;2023-05-07T14:51:50;5.40;;;2.25;;
26303;SDS011;57113;48.680;8.890;2023-05-07T14:54:16;4.45;;;2.10;;
26303;SDS011;57113;48.680;8.890;2023-05-07T14:56:42;3.45;;;2.05;;
26303;SDS011;57113;48.680;8.890;2023-05-07T14:59:08;7.05;;;2.30;;
26303;SDS011;57113;48.680;8.890;2023-05-07T15:01:34;8.13;;;1.98;;
26303;SDS011;57113;48.680;8.890;2023-05-07T15:04:01;5.85;;;2.17;;